createdAt,value
2023-04-08T00:01:57.338Z,17.27
2023-04-08T00:04:24.942Z,17.00
2023-04-08T00:06:52.407Z,20.03
2023-04-08T00:09:21.248Z,20.57
2023-04-08T00:11:48.670Z,21.93
2023-04-08T00:14:16.258Z,22.50
2023-04-08T00:16:43.725Z,27.70
2023-04-08T00:19:11.549Z,27.67
2023-04-08T00:21:38.921Z,29.80
2023-04-08T00:24:06.979Z,30.17
2023-04-08T00:26:35.866Z,29.33
2023-04-08T00:29:03.296Z,31.17
2023-04-08T00:31:30.983Z,30.77
2023-04-08T00:33:58.828Z,28.20
2023-04-08T00:36:27.655Z,32.43
2023-04-08T00:38:55.456Z,37.50
2023-04-08T00:41:22.850Z,34.80
2023-04-08T00:43:51.590Z,37.47
2023-04-08T00:46:19.658Z,37.67
2023-04-08T00:48:47.138Z,34.80
2023-04-08T00:51:14.614Z,34.77
2023-04-08T00:53:42.075Z,36.73
2023-04-08T00:56:09.498Z,38.77
2023-04-08T00:58:37.138Z,33.00
2023-04-08T01:01:11.452Z,38.63
2023-04-08T01:03:46.196Z,34.70
2023-04-08T01:06:20.627Z,38.63
2023-04-08T01:08:49.401Z,47.67
2023-04-08T01:11:17.602Z,41.50
2023-04-08T01:13:46.602Z,42.90
2023-04-08T01:16:17.590Z,36.83
2023-04-08T01:18:47.463Z,41.20
2023-04-08T01:21:17.353Z,40.13
2023-04-08T01:24:00.626Z,47.43
2023-04-08T01:26:30.235Z,43.20
2023-04-08T01:29:01.398Z,42.53
2023-04-08T01:31:30.456Z,44.13
2023-04-08T01:34:00.654Z,46.40
2023-04-08T01:36:29.603Z,47.40
2023-04-08T01:38:57.609Z,43.83
2023-04-08T01:41:25.467Z,47.63
2023-04-08T01:43:55.630Z,49.57
2023-04-08T01:46:23.567Z,53.37
2023-04-08T01:48:52.378Z,42.70
2023-04-08T01:51:21.078Z,45.63
2023-04-08T01:53:48.546Z,49.00
2023-04-08T01:56:17.325Z,37.10
2023-04-08T01:58:50.312Z,39.23
2023-04-08T02:01:21.979Z,39.47
2023-04-08T02:03:52.144Z,42.83
2023-04-08T02:06:19.681Z,44.53
2023-04-08T02:08:47.151Z,42.47
2023-04-08T02:11:14.715Z,48.23
2023-04-08T02:13:42.491Z,48.37
2023-04-08T02:16:16.243Z,54.13
2023-04-08T02:18:52.947Z,48.40
2023-04-08T02:21:23.870Z,47.37
2023-04-08T02:23:52.118Z,54.33
2023-04-08T02:26:21.904Z,50.87
2023-04-08T02:28:51.114Z,47.73
2023-04-08T02:31:20.509Z,56.97
2023-04-08T02:33:50.793Z,42.70
2023-04-08T02:36:18.766Z,43.83
2023-04-08T02:38:49.303Z,52.53
2023-04-08T02:41:16.973Z,57.03
2023-04-08T02:43:44.617Z,45.67
2023-04-08T02:46:12.920Z,52.37
2023-04-08T02:48:40.323Z,44.30
2023-04-08T02:51:09.265Z,53.37
2023-04-08T02:53:36.711Z,44.93
2023-04-08T02:56:04.189Z,49.43
2023-04-08T02:58:31.655Z,50.57
2023-04-08T03:00:59.099Z,58.17
2023-04-08T03:03:29.777Z,49.90
2023-04-08T03:05:58.195Z,52.60
2023-04-08T03:08:27.033Z,48.00
2023-04-08T03:10:54.429Z,50.43
2023-04-08T03:13:21.841Z,51.10
2023-04-08T03:15:49.301Z,44.67
2023-04-08T03:18:17.769Z,39.40
2023-04-08T03:20:45.221Z,47.60
2023-04-08T03:23:12.629Z,50.80
2023-04-08T03:25:41.327Z,53.50
2023-04-08T03:28:08.745Z,54.20
2023-04-08T03:30:36.481Z,46.77
2023-04-08T03:33:07.892Z,52.60
2023-04-08T03:35:35.558Z,54.03
2023-04-08T03:38:03.016Z,62.53
2023-04-08T03:40:30.410Z,52.87
2023-04-08T03:42:59.163Z,57.73
2023-04-08T03:45:26.603Z,46.90
2023-04-08T03:47:54.046Z,57.07
2023-04-08T03:50:21.478Z,56.37
2023-04-08T03:52:48.889Z,54.20
2023-04-08T03:55:16.297Z,59.67
2023-04-08T03:57:44.917Z,46.23
2023-04-08T04:00:15.149Z,57.73
2023-04-08T04:02:42.609Z,60.73
2023-04-08T04:05:10.662Z,59.37
2023-04-08T04:07:38.058Z,56.00
2023-04-08T04:10:06.562Z,56.13
2023-04-08T04:12:34.011Z,55.40
2023-04-08T04:15:01.405Z,60.23
2023-04-08T04:17:30.183Z,53.77
2023-04-08T04:19:57.642Z,53.33
2023-04-08T04:22:25.096Z,54.63
2023-04-08T04:24:52.517Z,47.97
2023-04-08T04:27:19.918Z,53.73
2023-04-08T04:29:47.369Z,61.67
2023-04-08T04:32:14.814Z,55.93
2023-04-08T04:34:44.454Z,50.67
2023-04-08T04:37:11.971Z,45.73
2023-04-08T04:39:39.448Z,49.37
2023-04-08T04:42:07.514Z,50.50
2023-04-08T04:44:34.956Z,51.43
2023-04-08T04:47:02.373Z,56.10
2023-04-08T04:49:29.928Z,56.00
2023-04-08T04:51:58.764Z,45.30
2023-04-08T04:54:26.507Z,49.03
2023-04-08T04:56:53.956Z,48.53
2023-04-08T04:59:21.433Z,51.23
2023-04-08T05:01:48.982Z,48.60
2023-04-08T05:04:16.518Z,48.00
2023-04-08T05:06:43.934Z,46.53
2023-04-08T05:09:12.684Z,43.67
2023-04-08T05:11:40.094Z,42.83
2023-04-08T05:14:07.927Z,47.67
2023-04-08T05:16:35.772Z,45.77
2023-04-08T05:19:03.316Z,49.03
2023-04-08T05:21:30.787Z,51.80
2023-04-08T05:23:58.168Z,43.73
2023-04-08T05:26:27.146Z,52.53
2023-04-08T05:28:54.633Z,50.87
2023-04-08T05:31:22.330Z,42.67
2023-04-08T05:33:49.765Z,49.93
2023-04-08T05:36:17.319Z,50.03
2023-04-08T05:38:44.750Z,48.00
2023-04-08T05:41:12.280Z,48.90
2023-04-08T05:43:41.262Z,48.20
2023-04-08T05:46:09.179Z,44.90
2023-04-08T05:48:36.737Z,50.93
2023-04-08T05:51:04.499Z,50.90
2023-04-08T05:53:32.192Z,44.93
2023-04-08T05:55:59.646Z,56.30
2023-04-08T05:58:27.069Z,56.60
2023-04-08T06:00:56.395Z,55.80
2023-04-08T06:03:23.942Z,51.07
2023-04-08T06:05:51.630Z,48.07
2023-04-08T06:08:19.054Z,58.33
2023-04-08T06:10:50.021Z,55.60
2023-04-08T06:13:17.464Z,60.23
2023-04-08T06:15:44.934Z,57.37
2023-04-08T06:18:13.656Z,56.80
2023-04-08T06:20:41.048Z,56.30
2023-04-08T06:23:08.449Z,54.97
2023-04-08T06:25:35.861Z,54.50
2023-04-08T06:28:03.308Z,57.60
2023-04-08T06:30:30.720Z,62.53
2023-04-08T06:32:58.167Z,54.70
2023-04-08T06:35:27.967Z,59.17
2023-04-08T06:37:55.918Z,58.60
2023-04-08T06:40:23.330Z,51.03
2023-04-08T06:42:50.788Z,55.50
2023-04-08T06:45:18.188Z,51.03
2023-04-08T06:47:45.672Z,58.83
2023-04-08T06:50:13.097Z,54.10
2023-04-08T06:52:41.848Z,51.63
2023-04-08T06:55:10.004Z,58.07
2023-04-08T06:57:37.441Z,55.43
2023-04-08T07:00:05.690Z,50.47
2023-04-08T07:02:33.233Z,48.60
2023-04-08T07:05:00.978Z,49.60
2023-04-08T07:07:28.412Z,54.00
2023-04-08T07:09:57.197Z,59.77
2023-04-08T07:12:24.737Z,48.07
2023-04-08T07:14:53.080Z,48.93
2023-04-08T07:17:20.584Z,46.53
2023-04-08T07:19:49.265Z,52.73
2023-04-08T07:22:17.287Z,49.67
2023-04-08T07:24:49.561Z,46.70
2023-04-08T07:27:18.374Z,50.27
2023-04-08T07:29:45.809Z,46.80
2023-04-08T07:32:13.217Z,46.23
2023-04-08T07:34:40.749Z,45.13
2023-04-08T07:37:08.148Z,45.47
2023-04-08T07:39:35.588Z,47.37
2023-04-08T07:42:03.053Z,45.10
2023-04-08T07:44:31.820Z,48.77
2023-04-08T07:46:59.271Z,50.60
2023-04-08T07:49:26.721Z,43.70
2023-04-08T07:51:54.170Z,45.10
2023-04-08T07:54:21.604Z,45.73
2023-04-08T07:56:49.034Z,45.13
2023-04-08T07:59:16.674Z,44.70
2023-04-08T08:01:46.893Z,45.07
2023-04-08T08:04:14.838Z,48.60
2023-04-08T08:06:42.378Z,43.17
2023-04-08T08:09:09.833Z,52.33
2023-04-08T08:11:37.232Z,49.07
2023-04-08T08:14:05.270Z,47.57
2023-04-08T08:16:33.710Z,47.43
2023-04-08T08:19:02.901Z,46.93
2023-04-08T08:21:31.292Z,48.23
2023-04-08T08:23:59.616Z,42.00
2023-04-08T08:26:27.331Z,37.23
2023-04-08T08:28:55.040Z,40.33
2023-04-08T08:31:22.614Z,36.77
2023-04-08T08:33:50.250Z,43.03
2023-04-08T08:36:19.513Z,42.27
2023-04-08T08:38:46.973Z,44.07
2023-04-08T08:41:15.412Z,37.47
2023-04-08T08:43:42.861Z,39.10
2023-04-08T08:46:12.420Z,36.53
2023-04-08T08:48:40.743Z,42.23
2023-04-08T08:51:09.949Z,50.10
2023-04-08T08:53:39.117Z,45.17
2023-04-08T08:58:40.318Z,40.27
2023-04-08T09:01:32.797Z,41.30
2023-04-08T09:04:12.185Z,38.73
2023-04-08T09:06:40.028Z,41.50
2023-04-08T09:09:11.132Z,39.33
2023-04-08T09:11:39.878Z,45.10
2023-04-08T09:14:18.209Z,38.03
2023-04-08T09:16:45.856Z,44.87
2023-04-08T09:19:13.493Z,46.33
2023-04-08T09:21:42.305Z,40.57
2023-04-08T09:24:28.967Z,36.60
2023-04-08T09:26:57.097Z,36.77
2023-04-08T09:29:27.120Z,35.43
2023-04-08T09:31:56.938Z,38.60
2023-04-08T09:34:25.210Z,32.80
2023-04-08T09:36:53.057Z,48.30
2023-04-08T09:39:21.972Z,42.20
2023-04-08T09:41:50.992Z,39.90
2023-04-08T09:44:20.758Z,36.70
2023-04-08T09:46:57.631Z,34.30
2023-04-08T09:49:28.002Z,33.20
2023-04-08T09:52:01.009Z,33.53
2023-04-08T09:54:38.884Z,33.70
2023-04-08T09:57:10.717Z,28.63
2023-04-08T09:59:39.938Z,35.40
2023-04-08T10:02:12.403Z,30.73
2023-04-08T10:04:42.609Z,33.90
2023-04-08T10:07:10.539Z,33.63
2023-04-08T10:09:41.504Z,32.97
2023-04-08T10:12:09.098Z,33.30
2023-04-08T10:14:36.551Z,37.10
2023-04-08T10:17:28.596Z,35.63
2023-04-08T10:19:58.562Z,37.77
2023-04-08T10:22:49.104Z,35.43
2023-04-08T10:25:34.433Z,36.50
2023-04-08T10:28:03.397Z,34.77
2023-04-08T10:30:40.418Z,32.17
2023-04-08T10:33:12.221Z,34.20
2023-04-08T10:35:42.904Z,33.43
2023-04-08T10:38:11.685Z,34.67
2023-04-08T10:40:42.897Z,33.13
2023-04-08T10:43:11.530Z,26.03
2023-04-08T10:45:39.558Z,27.43
2023-04-08T10:48:14.358Z,29.37
2023-04-08T10:50:41.948Z,25.03
2023-04-08T10:53:09.472Z,24.60
2023-04-08T10:55:37.019Z,25.70
2023-04-08T10:58:09.485Z,26.57
2023-04-08T11:00:38.236Z,24.80
2023-04-08T11:03:08.228Z,26.37
2023-04-08T11:05:37.066Z,25.70
2023-04-08T11:08:05.533Z,29.97
2023-04-08T11:10:38.393Z,25.23
2023-04-08T11:13:09.890Z,21.63
2023-04-08T11:15:38.046Z,22.93
2023-04-08T11:18:06.382Z,23.27
2023-04-08T11:20:36.185Z,23.33
2023-04-08T11:23:04.055Z,26.80
2023-04-08T11:25:31.960Z,20.93
2023-04-08T11:28:00.253Z,23.23
2023-04-08T11:30:30.834Z,23.13
2023-04-08T11:32:58.419Z,25.43
2023-04-08T11:35:29.936Z,23.90
2023-04-08T11:37:57.945Z,21.40
2023-04-08T11:40:26.325Z,24.30
2023-04-08T11:42:54.162Z,22.70
2023-04-08T11:45:22.535Z,25.00
2023-04-08T11:47:51.512Z,23.80
2023-04-08T11:50:25.620Z,24.77
2023-04-08T11:52:53.814Z,23.23
2023-04-08T11:55:26.364Z,21.17
2023-04-08T11:57:54.556Z,25.73
2023-04-08T12:00:22.954Z,24.77
2023-04-08T12:02:52.857Z,24.60
2023-04-08T12:05:21.429Z,24.40
2023-04-08T12:07:48.973Z,27.50
2023-04-08T12:10:16.482Z,28.37
2023-04-08T12:12:43.940Z,27.63
2023-04-08T12:15:11.981Z,22.80
2023-04-08T12:17:39.714Z,25.07
2023-04-08T12:20:09.678Z,24.60
2023-04-08T12:22:40.165Z,26.40
2023-04-08T12:25:07.979Z,24.00
2023-04-08T12:27:35.650Z,20.17
2023-04-08T12:30:03.959Z,19.27
2023-04-08T12:32:31.783Z,19.23
2023-04-08T12:34:59.198Z,16.53
2023-04-08T12:37:28.611Z,15.30
2023-04-08T12:39:56.071Z,16.40
2023-04-08T12:42:23.486Z,17.60
2023-04-08T12:44:50.936Z,16.53
2023-04-08T12:47:25.579Z,17.85
2023-04-08T12:49:53.668Z,16.37
2023-04-08T12:52:21.097Z,16.13
2023-04-08T12:54:49.824Z,16.50
2023-04-08T12:57:17.523Z,16.17
2023-04-08T12:59:44.923Z,18.60
2023-04-08T13:02:12.376Z,18.90
2023-04-08T13:04:39.804Z,21.13
2023-04-08T13:07:07.627Z,21.20
2023-04-08T13:09:35.070Z,19.20
2023-04-08T13:12:03.982Z,19.03
2023-04-08T13:14:31.414Z,19.17
2023-04-08T13:16:58.851Z,17.50
2023-04-08T13:19:26.331Z,25.57
2023-04-08T13:21:53.697Z,21.27
2023-04-08T13:24:21.194Z,17.43
2023-04-08T13:26:48.609Z,18.10
2023-04-08T13:29:17.333Z,18.37
2023-04-08T13:31:44.878Z,17.40
2023-04-08T13:34:12.355Z,15.87
2023-04-08T13:36:39.787Z,15.33
2023-04-08T13:39:07.244Z,14.73
2023-04-08T13:41:35.009Z,13.10
2023-04-08T13:44:02.430Z,13.10
2023-04-08T13:46:31.336Z,15.60
2023-04-08T13:48:58.933Z,16.27
2023-04-08T13:51:27.414Z,15.17
2023-04-08T13:53:54.794Z,12.40
2023-04-08T13:56:22.221Z,12.07
2023-04-08T13:58:56.539Z,12.20
2023-04-08T14:01:24.842Z,11.67
2023-04-08T14:03:53.643Z,12.13
2023-04-08T14:06:21.141Z,13.23
2023-04-08T14:08:48.671Z,11.53
2023-04-08T14:11:16.328Z,12.40
2023-04-08T14:13:43.748Z,13.90
2023-04-08T14:16:11.169Z,16.07
2023-04-08T14:18:38.598Z,15.70
2023-04-08T14:21:07.518Z,16.97
2023-04-08T14:23:34.974Z,13.90
2023-04-08T14:26:02.412Z,12.40
2023-04-08T14:28:29.910Z,12.73
2023-04-08T14:30:57.380Z,13.40
2023-04-08T14:33:24.887Z,12.93
2023-04-08T14:35:53.583Z,12.47
2023-04-08T14:38:23.032Z,11.63
2023-04-08T14:40:50.728Z,11.67
2023-04-08T14:43:18.185Z,12.57
2023-04-08T14:45:45.962Z,12.17
2023-04-08T14:48:13.426Z,12.63
2023-04-08T14:50:40.836Z,11.20
2023-04-08T14:53:08.252Z,11.47
2023-04-08T14:55:36.953Z,11.53
2023-04-08T14:58:04.352Z,11.57
2023-04-08T15:00:31.731Z,10.60
2023-04-08T15:02:59.293Z,11.13
2023-04-08T15:05:26.746Z,11.90
2023-04-08T15:07:54.717Z,12.73
2023-04-08T15:10:22.155Z,11.03
2023-04-08T15:12:50.852Z,11.70
2023-04-08T15:15:18.265Z,11.77
2023-04-08T15:17:45.722Z,11.33
2023-04-08T15:20:14.448Z,11.40
2023-04-08T15:22:42.162Z,11.27
2023-04-08T15:25:10.849Z,10.43
2023-04-08T15:27:38.666Z,10.13
2023-04-08T15:30:09.808Z,10.87
2023-04-08T15:32:38.204Z,10.70
2023-04-08T15:35:06.668Z,10.70
2023-04-08T15:37:34.161Z,10.10
2023-04-08T15:40:01.814Z,11.70
2023-04-08T15:42:29.370Z,11.07
2023-04-08T15:44:56.761Z,11.20
2023-04-08T15:47:25.995Z,10.93
2023-04-08T15:49:55.797Z,10.93
2023-04-08T15:52:23.252Z,10.43
2023-04-08T15:54:50.732Z,10.17
2023-04-08T15:57:18.164Z,10.23
2023-04-08T15:59:45.624Z,10.37
2023-04-08T16:02:13.141Z,10.40
2023-04-08T16:04:42.768Z,10.57
2023-04-08T16:07:10.475Z,11.03
2023-04-08T16:09:37.898Z,11.63
2023-04-08T16:12:05.561Z,11.40
2023-04-08T16:14:33.012Z,11.03
2023-04-08T16:17:00.414Z,10.00
2023-04-08T16:19:28.259Z,10.37
2023-04-08T16:21:57.057Z,10.97
2023-04-08T16:24:24.498Z,11.37
2023-04-08T16:26:51.910Z,10.80
2023-04-08T16:29:19.376Z,11.33
2023-04-08T16:31:46.876Z,10.67
2023-04-08T16:34:14.533Z,10.07
2023-04-08T16:36:42.280Z,11.77
2023-04-08T16:39:11.086Z,10.73
2023-04-08T16:41:39.338Z,13.13
2023-04-08T16:44:06.980Z,13.10
2023-04-08T16:46:34.503Z,11.73
2023-04-08T16:49:02.396Z,10.57
2023-04-08T16:51:29.921Z,11.90
2023-04-08T16:53:58.949Z,13.10
2023-04-08T16:56:28.229Z,10.03
2023-04-08T16:58:55.767Z,10.43
2023-04-08T17:01:23.229Z,9.53
2023-04-08T17:03:52.830Z,10.77
2023-04-08T17:06:20.678Z,11.53
2023-04-08T17:08:48.144Z,9.73
2023-04-08T17:11:16.302Z,10.30
2023-04-08T17:13:45.655Z,12.23
2023-04-08T17:16:13.986Z,13.50
2023-04-08T17:18:41.650Z,18.07
2023-04-08T17:21:09.120Z,16.07
2023-04-08T17:23:36.542Z,17.57
2023-04-08T17:26:07.496Z,17.57
2023-04-08T17:28:35.224Z,17.33
2023-04-08T17:31:04.166Z,18.93
2023-04-08T17:33:32.121Z,20.77
2023-04-08T17:35:59.568Z,19.83
2023-04-08T17:38:27.065Z,23.23
2023-04-08T17:40:54.787Z,20.43
2023-04-08T17:43:22.221Z,20.33
2023-04-08T17:45:50.129Z,21.27
2023-04-08T17:48:19.019Z,20.43
2023-04-08T17:50:46.530Z,21.43
2023-04-08T17:53:13.941Z,23.27
2023-04-08T17:55:41.375Z,22.07
2023-04-08T17:58:08.836Z,23.23
2023-04-08T18:00:36.288Z,23.93
2023-04-08T18:03:03.823Z,23.93
2023-04-08T18:05:32.742Z,23.87
2023-04-08T18:08:00.202Z,24.83
2023-04-08T18:10:27.665Z,27.47
2023-04-08T18:13:10.341Z,24.53
2023-04-08T18:15:38.968Z,24.70
2023-04-08T18:18:06.381Z,33.63
2023-04-08T18:20:37.750Z,24.90
2023-04-08T18:23:05.390Z,24.57
2023-04-08T18:25:34.455Z,24.67
2023-04-08T18:28:02.156Z,29.13
2023-04-08T18:30:30.100Z,26.23
2023-04-08T18:32:57.640Z,25.30
2023-04-08T18:35:25.316Z,27.73
2023-04-08T18:37:54.197Z,30.43
2023-04-08T18:40:21.851Z,28.47
2023-04-08T18:42:49.245Z,27.83
2023-04-08T18:45:16.832Z,29.23
2023-04-08T18:47:44.286Z,27.30
2023-04-08T18:50:11.932Z,28.60
2023-04-08T18:52:39.510Z,25.37
2023-04-08T18:55:08.767Z,24.73
2023-04-08T18:57:36.177Z,26.50
2023-04-08T19:00:03.714Z,25.37
2023-04-08T19:02:31.713Z,27.17
2023-04-08T19:04:59.415Z,25.63
2023-04-08T19:07:27.423Z,32.67
2023-04-08T19:09:57.560Z,24.50
2023-04-08T19:12:26.626Z,25.37
2023-04-08T19:14:54.124Z,28.23
2023-04-08T19:17:21.590Z,28.17
2023-04-08T19:19:48.999Z,33.27
2023-04-08T19:22:17.033Z,42.57
2023-04-08T19:24:44.634Z,27.43
2023-04-08T19:27:13.905Z,20.43
2023-04-08T19:29:42.750Z,20.87
2023-04-08T19:32:10.249Z,21.47
2023-04-08T19:34:38.470Z,22.93
2023-04-08T19:37:06.042Z,18.40
2023-04-08T19:39:33.490Z,17.97
2023-04-08T19:42:00.878Z,20.70
2023-04-08T19:44:28.408Z,22.50
2023-04-08T19:46:57.830Z,20.80
2023-04-08T19:49:25.774Z,21.17
2023-04-08T19:51:53.243Z,20.67
2023-04-08T19:54:21.779Z,21.70
2023-04-08T19:56:49.446Z,20.83
2023-04-08T19:59:17.149Z,23.30
2023-04-08T20:01:44.629Z,21.97
2023-04-08T20:04:13.561Z,23.53
2023-04-08T20:06:41.225Z,21.20
2023-04-08T20:09:08.861Z,20.10
2023-04-08T20:11:36.407Z,21.87
2023-04-08T20:14:04.293Z,22.30
2023-04-08T20:16:32.080Z,21.97
2023-04-08T20:18:59.703Z,23.60
2023-04-08T20:21:28.746Z,24.90
2023-04-08T20:23:57.063Z,23.63
2023-04-08T20:26:24.434Z,24.17
2023-04-08T20:28:52.076Z,23.60
2023-04-08T20:31:19.987Z,22.47
2023-04-08T20:33:47.472Z,23.63
2023-04-08T20:36:14.936Z,25.07
2023-04-08T20:38:43.785Z,23.60
2023-04-08T20:41:11.329Z,23.53
2023-04-08T20:43:39.391Z,23.57
2023-04-08T20:46:06.853Z,28.63
2023-04-08T20:48:34.480Z,26.10
2023-04-08T20:51:01.955Z,25.40
2023-04-08T20:53:29.819Z,30.50
2023-04-08T20:55:58.664Z,25.33
2023-04-08T20:58:26.062Z,24.70
2023-04-08T21:00:53.612Z,26.40
2023-04-08T21:03:21.448Z,23.43
2023-04-08T21:05:50.127Z,25.67
2023-04-08T21:08:17.824Z,28.67
2023-04-08T21:10:45.206Z,31.70
2023-04-08T21:13:14.043Z,26.43
2023-04-08T21:15:41.469Z,25.63
2023-04-08T21:18:11.079Z,25.80
2023-04-08T21:20:40.418Z,26.97
2023-04-08T21:23:08.146Z,24.97
2023-04-08T21:25:35.613Z,25.93
2023-04-08T21:28:03.049Z,29.30
2023-04-08T21:30:31.848Z,30.23
2023-04-08T21:32:59.313Z,34.83
2023-04-08T21:35:26.914Z,95.13
2023-04-08T21:37:54.340Z,99.70
2023-04-08T21:40:21.810Z,29.60
2023-04-08T21:42:49.379Z,27.93
2023-04-08T21:45:16.920Z,30.13
2023-04-08T21:47:46.069Z,26.37
2023-04-08T21:50:13.532Z,28.27
2023-04-08T21:52:42.305Z,28.40
2023-04-08T21:55:11.340Z,35.63
2023-04-08T21:57:39.261Z,26.83
2023-04-08T22:00:13.153Z,31.67
2023-04-08T22:02:41.472Z,27.77
2023-04-08T22:05:11.760Z,27.37
2023-04-08T22:07:39.277Z,31.30
2023-04-08T22:10:07.932Z,37.17
2023-04-08T22:12:35.495Z,37.83
2023-04-08T22:15:03.570Z,30.17
2023-04-08T22:17:31.379Z,33.50
2023-04-08T22:19:59.159Z,34.87
2023-04-08T22:22:27.910Z,30.17
2023-04-08T22:24:55.390Z,49.83
2023-04-08T22:27:22.834Z,36.23
2023-04-08T22:29:50.249Z,41.83
2023-04-08T22:32:18.210Z,29.30
2023-04-08T22:34:45.675Z,32.20
2023-04-08T22:37:13.219Z,29.93
2023-04-08T22:39:42.017Z,47.07
2023-04-08T22:42:09.526Z,34.03
2023-04-08T22:44:37.000Z,37.00
2023-04-08T22:47:04.611Z,32.77
2023-04-08T22:49:32.034Z,29.77
2023-04-08T22:51:59.557Z,29.43
2023-04-08T22:54:26.996Z,30.60
2023-04-08T22:56:55.782Z,31.70
2023-04-08T22:59:23.289Z,29.13
2023-04-08T23:01:50.888Z,27.60
2023-04-08T23:04:18.423Z,42.13
2023-04-08T23:06:45.959Z,34.70
2023-04-08T23:09:13.454Z,39.57
2023-04-08T23:11:40.863Z,26.97
2023-04-08T23:14:10.987Z,66.43
2023-04-08T23:16:38.401Z,29.00
2023-04-08T23:19:05.804Z,37.90
2023-04-08T23:21:33.276Z,43.10
2023-04-08T23:24:00.786Z,42.30
2023-04-08T23:26:28.274Z,39.53
2023-04-08T23:28:55.873Z,36.23
2023-04-08T23:31:24.687Z,31.20
2023-04-08T23:33:52.099Z,29.73
2023-04-08T23:36:19.533Z,31.57
2023-04-08T23:38:47.024Z,32.33
2023-04-08T23:41:14.414Z,81.53
2023-04-08T23:43:41.812Z,31.33
2023-04-08T23:46:09.289Z,30.93
2023-04-08T23:48:38.020Z,32.33
2023-04-08T23:51:06.108Z,32.87
2023-04-08T23:53:33.637Z,30.00
2023-04-08T23:56:05.835Z,35.47
2023-04-08T23:58:33.628Z,35.23
